createdAt,value
2022-09-06T00:00:08.781Z,16.40
2022-09-06T00:02:40.016Z,12.52
2022-09-06T00:05:07.968Z,16.70
2022-09-06T00:07:35.218Z,16.75
2022-09-06T00:10:02.223Z,12.82
2022-09-06T00:12:29.340Z,13.63
2022-09-06T00:14:57.208Z,13.48
2022-09-06T00:17:23.947Z,16.02
2022-09-06T00:19:50.682Z,13.38
2022-09-06T00:22:17.617Z,17.15
2022-09-06T00:24:44.545Z,13.88
2022-09-06T00:27:11.432Z,12.50
2022-09-06T00:29:38.243Z,13.13
2022-09-06T00:32:05.130Z,14.65
2022-09-06T00:34:32.100Z,12.82
2022-09-06T00:36:58.796Z,12.85
2022-09-06T00:39:25.592Z,14.73
2022-09-06T00:41:52.578Z,13.60
2022-09-06T00:44:19.452Z,12.65
2022-09-06T00:46:49.408Z,13.07
2022-09-06T00:49:24.341Z,12.60
2022-09-06T00:51:57.598Z,14.45
2022-09-06T00:54:24.545Z,17.40
2022-09-06T00:56:51.491Z,14.57
2022-09-06T00:59:18.587Z,13.70
2022-09-06T01:01:45.599Z,15.20
2022-09-06T01:04:13.241Z,15.70
2022-09-06T01:07:01.364Z,14.10
2022-09-06T01:09:55.869Z,14.10
2022-09-06T01:12:44.927Z,13.75
2022-09-06T01:15:23.251Z,13.55
2022-09-06T01:18:10.372Z,13.15
2022-09-06T01:20:41.952Z,12.55
2022-09-06T01:23:08.803Z,14.45
2022-09-06T01:26:10.471Z,12.10
2022-09-06T01:28:48.043Z,12.68
2022-09-06T01:31:38.702Z,19.73
2022-09-06T01:34:08.409Z,13.43
2022-09-06T01:37:06.172Z,17.38
2022-09-06T01:39:33.584Z,15.40
2022-09-06T01:42:12.188Z,14.77
2022-09-06T01:44:43.775Z,13.82
2022-09-06T01:47:24.897Z,14.35
2022-09-06T01:50:20.650Z,15.10
2022-09-06T01:53:09.245Z,14.43
2022-09-06T01:55:43.667Z,14.63
2022-09-06T01:58:21.371Z,13.85
2022-09-06T02:01:08.890Z,14.18
2022-09-06T02:03:47.034Z,17.63
2022-09-06T02:06:21.029Z,14.50
2022-09-06T02:08:53.170Z,14.38
2022-09-06T02:11:20.832Z,12.88
2022-09-06T02:13:56.532Z,13.88
2022-09-06T02:16:26.631Z,13.00
2022-09-06T02:19:03.450Z,14.90
2022-09-06T02:21:34.823Z,16.00
2022-09-06T02:24:06.227Z,13.55
2022-09-06T02:26:37.092Z,14.32
2022-09-06T02:29:04.770Z,14.90
2022-09-06T02:31:43.050Z,14.32
2022-09-06T02:34:13.601Z,15.27
2022-09-06T02:36:40.539Z,13.25
2022-09-06T02:39:07.384Z,14.07
2022-09-06T02:41:34.699Z,20.20
2022-09-06T02:44:01.681Z,15.15
2022-09-06T02:46:28.468Z,15.85
2022-09-06T02:48:55.311Z,14.23
2022-09-06T02:51:22.051Z,15.13
2022-09-06T02:53:48.804Z,14.95
2022-09-06T02:56:15.543Z,14.65
2022-09-06T02:58:42.322Z,14.82
2022-09-06T03:01:09.179Z,16.55
2022-09-06T03:03:36.026Z,14.80
2022-09-06T03:06:02.856Z,17.33
2022-09-06T03:08:33.380Z,15.20
2022-09-06T03:11:00.997Z,14.88
2022-09-06T03:13:27.797Z,16.58
2022-09-06T03:15:57.141Z,15.45
2022-09-06T03:18:25.254Z,14.88
2022-09-06T03:20:53.193Z,15.23
2022-09-06T03:23:23.579Z,14.95
2022-09-06T03:25:50.518Z,18.38
2022-09-06T03:28:18.360Z,13.45
2022-09-06T03:30:46.878Z,15.50
2022-09-06T03:33:14.769Z,14.30
2022-09-06T03:35:48.724Z,15.80
2022-09-06T03:38:15.465Z,13.57
2022-09-06T03:40:45.258Z,13.75
2022-09-06T03:43:12.024Z,18.58
2022-09-06T03:45:38.820Z,15.35
2022-09-06T03:48:05.688Z,14.15
2022-09-06T03:50:32.494Z,14.38
2022-09-06T03:52:59.250Z,17.20
2022-09-06T03:55:25.985Z,17.25
2022-09-06T03:57:52.827Z,17.73
2022-09-06T04:00:19.653Z,17.75
2022-09-06T04:02:46.487Z,16.63
2022-09-06T04:05:13.317Z,17.02
2022-09-06T04:07:40.263Z,14.70
2022-09-06T04:10:07.410Z,14.65
2022-09-06T04:12:34.880Z,15.13
2022-09-06T04:15:01.636Z,21.33
2022-09-06T04:17:28.395Z,17.05
2022-09-06T04:19:55.138Z,14.60
2022-09-06T04:22:21.859Z,17.52
2022-09-06T04:24:48.634Z,17.02
2022-09-06T04:27:15.416Z,14.63
2022-09-06T04:29:42.194Z,14.88
2022-09-06T04:32:08.970Z,15.50
2022-09-06T04:34:35.735Z,19.60
2022-09-06T04:37:02.475Z,18.17
2022-09-06T04:39:29.263Z,15.00
2022-09-06T04:41:56.028Z,17.23
2022-09-06T04:44:22.999Z,17.60
2022-09-06T04:46:49.882Z,14.88
2022-09-06T04:49:16.722Z,15.13
2022-09-06T04:51:43.549Z,17.60
2022-09-06T04:54:10.303Z,15.75
2022-09-06T04:56:37.058Z,13.63
2022-09-06T04:59:03.787Z,14.65
2022-09-06T05:01:30.623Z,14.25
2022-09-06T05:03:57.772Z,14.88
2022-09-06T05:06:25.748Z,14.25
2022-09-06T05:08:52.960Z,14.35
2022-09-06T05:11:20.659Z,13.02
2022-09-06T05:13:47.755Z,13.45
2022-09-06T05:16:14.687Z,14.48
2022-09-06T05:18:41.800Z,17.38
2022-09-06T05:21:08.949Z,18.88
2022-09-06T05:23:36.260Z,15.60
2022-09-06T05:26:03.885Z,15.40
2022-09-06T05:28:31.468Z,16.67
2022-09-06T05:31:07.697Z,16.30
2022-09-06T05:33:34.930Z,16.20
2022-09-06T05:36:03.898Z,13.15
2022-09-06T05:38:31.452Z,13.85
2022-09-06T05:40:58.397Z,14.70
2022-09-06T05:43:25.217Z,13.57
2022-09-06T05:45:52.162Z,15.15
2022-09-06T05:48:19.584Z,15.05
2022-09-06T05:50:46.543Z,16.40
2022-09-06T05:53:13.263Z,14.50
2022-09-06T05:55:42.905Z,14.60
2022-09-06T05:58:10.084Z,14.00
2022-09-06T06:00:36.805Z,14.90
2022-09-06T06:03:03.566Z,16.10
2022-09-06T06:05:30.701Z,15.35
2022-09-06T06:07:58.963Z,14.43
2022-09-06T06:10:25.769Z,15.32
2022-09-06T06:12:52.533Z,17.42
2022-09-06T06:15:19.307Z,14.30
2022-09-06T06:17:46.037Z,19.50
2022-09-06T06:20:12.895Z,15.77
2022-09-06T06:22:39.629Z,16.83
2022-09-06T06:25:06.772Z,16.13
2022-09-06T06:27:34.813Z,21.45
2022-09-06T06:30:01.565Z,21.70
2022-09-06T06:32:28.719Z,18.75
2022-09-06T06:34:55.498Z,14.23
2022-09-06T06:37:22.256Z,17.55
2022-09-06T06:39:49.059Z,15.52
2022-09-06T06:42:16.072Z,16.35
2022-09-06T06:44:53.319Z,14.63
2022-09-06T06:47:20.756Z,15.57
2022-09-06T06:49:48.555Z,17.75
2022-09-06T06:52:15.301Z,14.82
2022-09-06T06:54:42.065Z,15.40
2022-09-06T06:57:09.486Z,15.02
2022-09-06T06:59:36.371Z,14.68
2022-09-06T07:02:03.223Z,13.52
2022-09-06T07:04:30.119Z,20.65
2022-09-06T07:12:30.815Z,14.70
2022-09-06T07:14:57.598Z,12.40
2022-09-06T07:17:24.428Z,21.75
2022-09-06T07:22:38.546Z,25.60
2022-09-06T07:25:06.035Z,17.88
2022-09-06T07:27:49.176Z,17.33
2022-09-06T07:30:16.911Z,14.25
2022-09-06T07:32:43.741Z,13.93
2022-09-06T07:35:12.402Z,14.40
2022-09-06T07:37:39.289Z,13.60
2022-09-06T07:40:06.589Z,13.35
2022-09-06T07:42:36.365Z,13.77
2022-09-06T07:45:04.665Z,15.00
2022-09-06T07:53:12.669Z,28.10
2022-09-06T07:55:42.710Z,16.85
2022-09-06T07:58:09.548Z,13.82
2022-09-06T08:00:36.466Z,14.80
2022-09-06T08:03:03.287Z,13.52
2022-09-06T08:11:03.815Z,15.02
2022-09-06T08:13:30.795Z,12.07
2022-09-06T08:16:02.776Z,12.73
2022-09-06T08:18:29.715Z,11.80
2022-09-06T08:20:56.527Z,12.57
2022-09-06T08:23:23.567Z,17.27
2022-09-06T08:25:59.742Z,13.02
2022-09-06T08:28:28.780Z,12.10
2022-09-06T08:30:56.425Z,13.43
2022-09-06T08:33:25.599Z,13.05
2022-09-06T08:35:59.248Z,12.55
2022-09-06T08:38:27.797Z,13.32
2022-09-06T08:41:06.959Z,12.85
2022-09-06T08:43:34.252Z,17.55
2022-09-06T08:46:01.680Z,24.27
2022-09-06T08:48:33.434Z,35.15
2022-09-06T08:51:19.123Z,19.15
2022-09-06T08:53:48.684Z,14.20
2022-09-06T08:56:25.073Z,13.82
2022-09-06T08:59:08.242Z,12.02
2022-09-06T09:01:56.384Z,11.30
2022-09-06T09:04:26.164Z,12.90
2022-09-06T09:07:01.227Z,14.98
2022-09-06T09:09:31.277Z,13.13
2022-09-06T09:12:00.610Z,13.40
2022-09-06T09:14:36.127Z,12.63
2022-09-06T09:17:09.888Z,11.25
2022-09-06T09:19:42.540Z,12.73
2022-09-06T09:22:09.996Z,13.40
2022-09-06T09:24:37.458Z,12.68
2022-09-06T09:27:08.624Z,11.43
2022-09-06T09:32:46.290Z,11.38
2022-09-06T09:38:03.573Z,13.93
2022-09-06T09:40:58.644Z,12.02
2022-09-06T09:43:36.006Z,12.70
2022-09-06T09:46:24.676Z,13.20
2022-09-06T09:49:08.116Z,15.93
2022-09-06T09:51:36.456Z,10.55
2022-09-06T09:54:06.454Z,11.05
2022-09-06T09:56:46.748Z,10.45
2022-09-06T09:59:30.062Z,13.82
2022-09-06T10:02:01.301Z,12.00
2022-09-06T10:04:45.067Z,11.57
2022-09-06T10:07:19.682Z,11.88
2022-09-06T10:10:02.038Z,11.77
2022-09-06T10:12:40.433Z,11.25
2022-09-06T10:15:13.056Z,13.05
2022-09-06T10:17:52.259Z,10.40
2022-09-06T10:20:19.133Z,10.73
2022-09-06T10:23:06.487Z,11.10
2022-09-06T10:25:57.551Z,16.02
2022-09-06T10:28:50.300Z,13.07
2022-09-06T10:31:29.243Z,10.35
2022-09-06T10:34:20.445Z,9.63
2022-09-06T10:37:07.553Z,11.50
2022-09-06T10:39:59.061Z,9.80
2022-09-06T10:42:34.670Z,10.25
2022-09-06T10:45:29.840Z,10.02
2022-09-06T10:48:25.150Z,9.60
2022-09-06T10:50:57.581Z,8.75
2022-09-06T10:53:49.522Z,9.85
2022-09-06T10:56:44.231Z,10.23
2022-09-06T11:02:26.906Z,11.85
2022-09-06T11:10:45.547Z,10.05
2022-09-06T11:13:20.929Z,12.00
2022-09-06T11:15:56.558Z,9.85
2022-09-06T11:18:29.703Z,10.32
2022-09-06T11:21:40.416Z,11.55
2022-09-06T11:24:14.975Z,10.82
2022-09-06T11:27:00.865Z,10.00
2022-09-06T11:29:30.402Z,10.88
2022-09-06T11:32:18.131Z,10.82
2022-09-06T11:34:57.746Z,9.68
2022-09-06T11:37:39.774Z,10.88
2022-09-06T11:40:29.228Z,11.05
2022-09-06T11:42:56.943Z,9.80
2022-09-06T11:45:43.737Z,9.50
2022-09-06T11:48:26.455Z,11.73
2022-09-06T11:50:58.901Z,11.32
2022-09-06T11:53:35.940Z,12.13
2022-09-06T11:56:02.658Z,14.32
2022-09-06T11:58:41.400Z,10.20
2022-09-06T12:01:13.942Z,9.05
2022-09-06T12:06:40.585Z,9.88
2022-09-06T12:09:27.823Z,8.90
2022-09-06T12:11:56.551Z,11.82
2022-09-06T12:14:42.547Z,11.00
2022-09-06T12:17:09.787Z,13.23
2022-09-06T12:19:44.867Z,10.70
2022-09-06T12:22:29.756Z,11.68
2022-09-06T12:25:18.426Z,10.02
2022-09-06T12:27:55.420Z,10.07
2022-09-06T12:30:44.076Z,10.40
2022-09-06T12:33:36.289Z,10.43
2022-09-06T12:36:15.633Z,9.02
2022-09-06T12:39:08.106Z,11.95
2022-09-06T12:41:48.493Z,10.88
2022-09-06T12:44:17.510Z,8.02
2022-09-06T12:46:48.713Z,8.25
2022-09-06T12:49:19.441Z,8.35
2022-09-06T12:51:46.624Z,10.00
2022-09-06T12:54:24.197Z,9.77
2022-09-06T12:56:51.853Z,9.35
2022-09-06T12:59:27.029Z,9.77
2022-09-06T13:02:05.720Z,9.93
2022-09-06T13:04:49.530Z,10.00
2022-09-06T13:07:18.638Z,8.73
2022-09-06T13:09:48.923Z,10.32
2022-09-06T13:12:26.231Z,8.18
2022-09-06T13:14:57.338Z,10.73
2022-09-06T13:17:29.389Z,8.77
2022-09-06T13:19:58.136Z,7.70
2022-09-06T13:22:45.141Z,9.23
2022-09-06T13:25:25.825Z,7.97
2022-09-06T13:27:58.197Z,9.15
2022-09-06T13:30:39.167Z,10.65
2022-09-06T13:33:07.521Z,13.25
2022-09-06T13:35:37.640Z,9.48
2022-09-06T13:38:20.819Z,7.95
2022-09-06T13:41:11.568Z,11.27
2022-09-06T13:43:45.931Z,9.75
2022-09-06T13:46:12.859Z,13.30
2022-09-06T13:48:39.988Z,8.75
2022-09-06T13:51:07.899Z,13.20
2022-09-06T13:53:35.567Z,7.78
2022-09-06T13:56:02.747Z,12.05
2022-09-06T13:58:29.911Z,13.52
2022-09-06T14:00:57.076Z,10.25
2022-09-06T14:03:31.097Z,9.30
2022-09-06T14:06:00.241Z,8.43
2022-09-06T14:08:38.810Z,10.10
2022-09-06T14:11:14.873Z,9.82
2022-09-06T14:13:41.794Z,8.30
2022-09-06T14:16:08.699Z,8.18
2022-09-06T14:18:36.251Z,12.50
2022-09-06T14:21:03.503Z,9.45
2022-09-06T14:23:30.446Z,7.28
2022-09-06T14:25:58.500Z,8.13
2022-09-06T14:28:26.796Z,8.10
2022-09-06T14:30:54.606Z,8.02
2022-09-06T14:33:21.799Z,10.82
2022-09-06T14:35:49.309Z,8.20
2022-09-06T14:38:16.278Z,16.20
2022-09-06T14:40:46.252Z,14.35
2022-09-06T14:45:40.510Z,10.50
2022-09-06T14:48:07.718Z,11.43
2022-09-06T14:50:36.188Z,10.02
2022-09-06T14:53:06.389Z,8.85
2022-09-06T14:55:39.819Z,10.45
2022-09-06T14:58:06.932Z,7.40
2022-09-06T15:00:33.695Z,11.10
2022-09-06T15:03:00.573Z,10.45
2022-09-06T15:05:27.386Z,11.15
2022-09-06T15:07:54.155Z,11.88
2022-09-06T15:10:21.225Z,11.10
2022-09-06T15:12:48.000Z,10.00
2022-09-06T15:15:14.916Z,8.02
2022-09-06T15:17:42.105Z,8.02
2022-09-06T15:20:09.341Z,9.35
2022-09-06T15:22:36.569Z,7.90
2022-09-06T15:25:03.654Z,10.25
2022-09-06T15:27:32.368Z,8.65
2022-09-06T15:29:59.704Z,8.20
2022-09-06T15:32:26.630Z,9.48
2022-09-06T15:34:53.833Z,6.85
2022-09-06T15:37:20.935Z,9.00
2022-09-06T15:39:47.846Z,9.45
2022-09-06T15:42:15.267Z,9.57
2022-09-06T15:44:42.388Z,9.50
2022-09-06T15:47:09.242Z,7.78
2022-09-06T15:49:37.134Z,9.20
2022-09-06T15:52:06.002Z,7.97
2022-09-06T15:54:51.442Z,8.68
2022-09-06T15:57:18.946Z,9.30
2022-09-06T15:59:47.043Z,9.60
2022-09-06T16:02:14.721Z,10.10
2022-09-06T16:04:42.013Z,6.70
2022-09-06T16:07:09.822Z,10.13
2022-09-06T16:09:36.770Z,12.23
2022-09-06T16:12:04.177Z,7.72
2022-09-06T16:14:31.678Z,8.00
2022-09-06T16:16:58.597Z,10.30
2022-09-06T16:19:28.285Z,7.25
2022-09-06T16:21:55.164Z,7.40
2022-09-06T16:24:23.552Z,9.57
2022-09-06T16:26:50.744Z,10.27
2022-09-06T16:29:19.136Z,9.18
2022-09-06T16:31:46.617Z,9.27
2022-09-06T16:34:14.550Z,7.65
2022-09-06T16:36:41.893Z,7.47
2022-09-06T16:39:09.221Z,9.68
2022-09-06T16:41:42.368Z,7.30
2022-09-06T16:44:16.490Z,7.43
2022-09-06T16:46:49.202Z,8.40
2022-09-06T16:49:17.625Z,9.25
2022-09-06T16:51:44.970Z,8.80
2022-09-06T16:54:11.805Z,7.68
2022-09-06T16:56:39.448Z,8.82
2022-09-06T16:59:08.712Z,8.27
2022-09-06T17:01:37.344Z,9.00
2022-09-06T17:04:05.462Z,7.38
2022-09-06T17:06:42.091Z,10.57
2022-09-06T17:09:08.923Z,8.55
2022-09-06T17:11:37.745Z,7.95
2022-09-06T17:14:05.006Z,8.73
2022-09-06T17:16:50.319Z,7.28
2022-09-06T17:19:17.469Z,8.73
2022-09-06T17:21:44.639Z,10.35
2022-09-06T17:24:11.614Z,9.18
2022-09-06T17:26:39.625Z,8.43
2022-09-06T17:29:07.164Z,8.75
2022-09-06T17:31:34.858Z,7.43
2022-09-06T17:34:02.003Z,8.13
2022-09-06T17:36:31.650Z,9.02
2022-09-06T17:39:07.792Z,9.55
2022-09-06T17:41:46.257Z,8.40
2022-09-06T17:44:16.604Z,10.52
2022-09-06T17:49:30.593Z,8.43
2022-09-06T17:51:58.043Z,10.38
2022-09-06T17:54:25.463Z,7.97
2022-09-06T17:56:52.599Z,9.80
2022-09-06T17:59:19.877Z,7.93
2022-09-06T18:01:47.083Z,8.32
2022-09-06T18:04:18.041Z,8.18
2022-09-06T18:06:46.734Z,7.65
2022-09-06T18:09:15.890Z,7.40
2022-09-06T18:11:45.655Z,7.97
2022-09-06T18:14:18.664Z,8.45
2022-09-06T18:16:47.977Z,7.45
2022-09-06T18:19:15.708Z,7.05
2022-09-06T18:21:42.568Z,8.02
2022-09-06T18:24:10.400Z,8.45
2022-09-06T18:26:37.792Z,8.13
2022-09-06T18:29:08.346Z,7.72
2022-09-06T18:34:02.618Z,38.30
2022-09-06T18:36:32.435Z,14.85
2022-09-06T18:39:04.683Z,9.85
2022-09-06T18:41:51.956Z,10.80
2022-09-06T18:44:19.206Z,7.20
2022-09-06T18:46:46.210Z,7.88
2022-09-06T18:49:15.048Z,7.82
2022-09-06T18:51:42.177Z,10.30
2022-09-06T18:54:10.865Z,8.88
2022-09-06T18:56:38.455Z,7.72
2022-09-06T18:59:05.800Z,7.93
2022-09-06T19:01:34.774Z,9.35
2022-09-06T19:04:02.481Z,7.53
2022-09-06T19:06:31.379Z,10.95
2022-09-06T19:08:59.811Z,17.17
2022-09-06T19:11:27.169Z,13.90
2022-09-06T19:13:55.621Z,8.48
2022-09-06T19:16:24.027Z,7.60
2022-09-06T19:18:55.018Z,11.32
2022-09-06T19:21:23.369Z,7.28
2022-09-06T19:23:56.939Z,7.30
2022-09-06T19:26:24.994Z,7.93
2022-09-06T19:28:55.631Z,8.52
2022-09-06T19:31:24.139Z,9.10
2022-09-06T19:33:51.959Z,7.63
2022-09-06T19:36:20.016Z,7.85
2022-09-06T19:41:32.043Z,7.30
2022-09-06T19:43:59.252Z,9.30
2022-09-06T19:46:27.005Z,8.88
2022-09-06T19:48:55.991Z,7.88
2022-09-06T19:51:23.956Z,7.93
2022-09-06T19:53:53.793Z,7.18
2022-09-06T19:56:23.360Z,9.68
2022-09-06T19:58:58.245Z,6.63
2022-09-06T20:01:29.115Z,8.02
2022-09-06T20:03:56.672Z,7.65
2022-09-06T20:06:23.718Z,8.88
2022-09-06T20:08:52.564Z,8.48
2022-09-06T20:11:21.152Z,9.75
2022-09-06T20:13:48.057Z,9.40
2022-09-06T20:16:15.727Z,7.13
2022-09-06T20:18:43.267Z,12.90
2022-09-06T20:21:10.795Z,10.32
2022-09-06T20:23:37.606Z,8.63
2022-09-06T20:26:13.539Z,7.68
2022-09-06T20:28:41.152Z,7.78
2022-09-06T20:31:10.840Z,7.82
2022-09-06T20:33:38.098Z,7.73
2022-09-06T20:36:07.602Z,7.65
2022-09-06T20:38:40.828Z,8.27
2022-09-06T20:41:15.955Z,10.18
2022-09-06T20:43:43.080Z,9.30
2022-09-06T20:46:16.027Z,9.10
2022-09-06T20:48:45.459Z,11.90
2022-09-06T20:51:19.343Z,8.38
2022-09-06T20:53:55.250Z,7.20
2022-09-06T20:56:27.443Z,8.60
2022-09-06T20:58:56.574Z,8.30
2022-09-06T21:01:25.862Z,8.55
2022-09-06T21:03:58.591Z,9.98
2022-09-06T21:06:27.655Z,8.65
2022-09-06T21:08:55.257Z,9.15
2022-09-06T21:11:22.408Z,9.20
2022-09-06T21:13:51.225Z,8.50
2022-09-06T21:16:24.835Z,9.82
2022-09-06T21:18:57.184Z,9.25
2022-09-06T21:21:25.487Z,9.02
2022-09-06T21:23:52.941Z,8.80
2022-09-06T21:26:20.207Z,8.23
2022-09-06T21:28:48.140Z,8.75
2022-09-06T21:31:29.766Z,9.05
2022-09-06T21:33:58.575Z,8.15
2022-09-06T21:36:30.502Z,8.40
2022-09-06T21:38:59.550Z,8.77
2022-09-06T21:41:28.135Z,9.75
2022-09-06T21:43:57.241Z,8.88
2022-09-06T21:46:31.769Z,7.88
2022-09-06T21:49:02.613Z,9.10
2022-09-06T21:51:29.385Z,7.80
2022-09-06T21:53:56.971Z,8.63
2022-09-06T21:56:24.453Z,7.93
2022-09-06T21:58:56.714Z,7.60
2022-09-06T22:01:28.573Z,7.43
2022-09-06T22:03:55.773Z,7.40
2022-09-06T22:06:25.038Z,7.35
2022-09-06T22:08:52.282Z,8.90
2022-09-06T22:11:21.366Z,7.32
2022-09-06T22:13:49.529Z,7.80
2022-09-06T22:16:18.627Z,7.15
2022-09-06T22:18:46.358Z,7.80
2022-09-06T22:21:18.427Z,8.07
2022-09-06T22:23:53.895Z,7.72
2022-09-06T22:26:21.593Z,10.35
2022-09-06T22:28:52.566Z,8.32
2022-09-06T22:31:19.435Z,7.88
2022-09-06T22:33:46.290Z,9.57
2022-09-06T22:36:13.132Z,10.05
2022-09-06T22:38:39.924Z,7.07
2022-09-06T22:41:06.734Z,8.93
2022-09-06T22:43:33.519Z,8.63
2022-09-06T22:46:08.557Z,9.35
2022-09-06T22:48:36.071Z,9.23
2022-09-06T22:51:04.154Z,8.43
2022-09-06T22:53:31.932Z,8.27
2022-09-06T22:55:58.878Z,8.25
2022-09-06T22:58:29.524Z,11.07
2022-09-06T23:03:23.769Z,8.15
2022-09-06T23:05:50.656Z,8.60
2022-09-06T23:08:17.451Z,10.05
2022-09-06T23:10:44.510Z,8.63
2022-09-06T23:13:11.715Z,9.93
2022-09-06T23:15:40.708Z,9.25
2022-09-06T23:18:08.358Z,8.95
2022-09-06T23:20:37.044Z,9.57
2022-09-06T23:23:04.787Z,10.00
2022-09-06T23:25:31.879Z,8.90
2022-09-06T23:28:00.178Z,9.52
2022-09-06T23:30:27.077Z,8.43
2022-09-06T23:32:56.309Z,8.50
2022-09-06T23:35:23.822Z,9.95
2022-09-06T23:37:51.274Z,8.68
2022-09-06T23:40:19.503Z,9.50
2022-09-06T23:42:46.974Z,9.57
2022-09-06T23:45:14.018Z,9.25
2022-09-06T23:47:41.535Z,10.63
2022-09-06T23:50:09.031Z,10.55
2022-09-06T23:52:35.913Z,11.10
2022-09-06T23:55:03.338Z,9.75
2022-09-06T23:57:30.414Z,10.75
2022-09-06T23:59:57.237Z,10.48
